KAQW/AQW METAR and TAF weather

Enter ICAO airport designator
Station Type Date Time Source
KAQW METAR 2019/04/25 01:52 UTC NOAA

KAQW 250152Z AUTO 27007KT 10SM OVC025 07/02 A2992 RMK AO2 SLP137 T00670017


Station Type Date Time Source
KAQW Decoded METAR 2019/04/25 01:52 UTC NOAA

N ADAMS HARRIMAN-AND-WEST, MA, United States (KAQW) 42-42N 073-10W 201M
Apr 24, 2019 - 09:52 PM EDT / 2019.04.25 0152 UTC
Wind: from the W (270 degrees) at 8 MPH (7 KT):0
Visibility: 10 mile(s):0
Sky conditions: overcast
Temperature: 44.1 F (6.7 C)
Dew Point: 35.1 F (1.7 C)
Relative Humidity: 70%
Pressure (altimeter): 29.92 in. Hg (1013 hPa)
ob: KAQW 250152Z AUTO 27007KT 10SM OVC025 07/02 A2992 RMK AO2 SLP137 T00670017
cycle: 2

Station Type Date Time Source
KAQW TAF UTC NOAA

Error!

Example: see airport list